sensor_id;sensor_type;location;lat;lon;timestamp;temperature;humidity
19952;DHT22;10137;49.406;19.484;2023-06-10T00:01:31;15.70;99.90
19952;DHT22;10137;49.406;19.484;2023-06-10T00:04:07;15.70;99.90
19952;DHT22;10137;49.406;19.484;2023-06-10T00:06:38;15.70;99.90
19952;DHT22;10137;49.406;19.484;2023-06-10T00:09:13;15.70;99.90
19952;DHT22;10137;49.406;19.484;2023-06-10T00:11:48;15.70;99.90
19952;DHT22;10137;49.406;19.484;2023-06-10T00:14:20;15.70;99.90
19952;DHT22;10137;49.406;19.484;2023-06-10T00:16:48;15.70;99.90
19952;DHT22;10137;49.406;19.484;2023-06-10T00:19:19;15.70;99.90
19952;DHT22;10137;49.406;19.484;2023-06-10T00:21:51;15.70;99.90
19952;DHT22;10137;49.406;19.484;2023-06-10T00:24:22;15.70;99.90
19952;DHT22;10137;49.406;19.484;2023-06-10T00:26:50;15.80;99.90
19952;DHT22;10137;49.406;19.484;2023-06-10T00:29:24;15.80;99.90
19952;DHT22;10137;49.406;19.484;2023-06-10T00:31:52;15.80;99.90
19952;DHT22;10137;49.406;19.484;2023-06-10T00:34:24;15.80;99.90
19952;DHT22;10137;49.406;19.484;2023-06-10T00:36:52;15.80;99.90
19952;DHT22;10137;49.406;19.484;2023-06-10T00:39:20;15.80;99.90
19952;DHT22;10137;49.406;19.484;2023-06-10T00:41:47;15.80;99.90
19952;DHT22;10137;49.406;19.484;2023-06-10T00:44:25;15.80;99.90
19952;DHT22;10137;49.406;19.484;2023-06-10T00:46:53;15.80;99.90
19952;DHT22;10137;49.406;19.484;2023-06-10T00:49:23;15.80;99.90
19952;DHT22;10137;49.406;19.484;2023-06-10T00:51:52;15.80;99.90
19952;DHT22;10137;49.406;19.484;2023-06-10T00:54:25;15.80;99.90
19952;DHT22;10137;49.406;19.484;2023-06-10T00:56:54;15.80;99.90
19952;DHT22;10137;49.406;19.484;2023-06-10T00:59:22;15.80;99.90
19952;DHT22;10137;49.406;19.484;2023-06-10T01:02:04;15.80;99.90
19952;DHT22;10137;49.406;19.484;2023-06-10T01:04:32;15.80;99.90
19952;DHT22;10137;49.406;19.484;2023-06-10T01:07:08;15.80;99.90
19952;DHT22;10137;49.406;19.484;2023-06-10T01:09:47;15.80;99.90
19952;DHT22;10137;49.406;19.484;2023-06-10T01:12:26;15.80;99.90
19952;DHT22;10137;49.406;19.484;2023-06-10T01:14:59;15.90;99.90
19952;DHT22;10137;49.406;19.484;2023-06-10T01:17:31;15.90;99.90
19952;DHT22;10137;49.406;19.484;2023-06-10T01:19:59;15.80;99.90
19952;DHT22;10137;49.406;19.484;2023-06-10T01:22:40;15.80;99.90
19952;DHT22;10137;49.406;19.484;2023-06-10T01:25:09;15.80;99.90
19952;DHT22;10137;49.406;19.484;2023-06-10T01:27:40;15.80;99.90
19952;DHT22;10137;49.406;19.484;2023-06-10T01:30:15;15.80;99.90
19952;DHT22;10137;49.406;19.484;2023-06-10T01:32:47;15.80;99.90
19952;DHT22;10137;49.406;19.484;2023-06-10T01:35:15;15.80;99.90
19952;DHT22;10137;49.406;19.484;2023-06-10T01:37:52;15.80;99.90
19952;DHT22;10137;49.406;19.484;2023-06-10T01:40:24;15.80;99.90
19952;DHT22;10137;49.406;19.484;2023-06-10T01:42:53;15.80;99.90
19952;DHT22;10137;49.406;19.484;2023-06-10T01:45:22;15.80;99.90
19952;DHT22;10137;49.406;19.484;2023-06-10T01:47:50;15.80;99.90
19952;DHT22;10137;49.406;19.484;2023-06-10T01:50:18;15.80;99.90
19952;DHT22;10137;49.406;19.484;2023-06-10T01:52:52;15.80;99.90
19952;DHT22;10137;49.406;19.484;2023-06-10T01:55:23;15.80;99.90
19952;DHT22;10137;49.406;19.484;2023-06-10T01:57:54;15.70;99.90
19952;DHT22;10137;49.406;19.484;2023-06-10T02:00:22;15.70;99.90
19952;DHT22;10137;49.406;19.484;2023-06-10T02:02:53;15.70;99.90
19952;DHT22;10137;49.406;19.484;2023-06-10T02:05:22;15.70;99.90
19952;DHT22;10137;49.406;19.484;2023-06-10T02:07:55;15.70;99.90
19952;DHT22;10137;49.406;19.484;2023-06-10T02:10:24;15.70;99.90
19952;DHT22;10137;49.406;19.484;2023-06-10T02:12:53;15.60;99.90
19952;DHT22;10137;49.406;19.484;2023-06-10T02:15:22;15.60;99.90
19952;DHT22;10137;49.406;19.484;2023-06-10T02:17:53;15.60;99.90
19952;DHT22;10137;49.406;19.484;2023-06-10T02:20:26;15.60;99.90
19952;DHT22;10137;49.406;19.484;2023-06-10T02:22:56;15.60;99.90
19952;DHT22;10137;49.406;19.484;2023-06-10T02:25:24;15.60;99.90
19952;DHT22;10137;49.406;19.484;2023-06-10T02:27:52;15.60;99.90
19952;DHT22;10137;49.406;19.484;2023-06-10T02:30:20;15.60;99.90
19952;DHT22;10137;49.406;19.484;2023-06-10T02:32:49;15.60;99.90
19952;DHT22;10137;49.406;19.484;2023-06-10T02:35:17;15.50;99.90
19952;DHT22;10137;49.406;19.484;2023-06-10T02:37:47;15.50;99.90
19952;DHT22;10137;49.406;19.484;2023-06-10T02:40:21;15.60;99.90
19952;DHT22;10137;49.406;19.484;2023-06-10T02:42:50;15.60;99.90
19952;DHT22;10137;49.406;19.484;2023-06-10T02:45:17;15.60;99.90
19952;DHT22;10137;49.406;19.484;2023-06-10T02:47:45;15.60;99.90
19952;DHT22;10137;49.406;19.484;2023-06-10T02:50:17;15.60;99.90
19952;DHT22;10137;49.406;19.484;2023-06-10T02:52:45;15.60;99.90
19952;DHT22;10137;49.406;19.484;2023-06-10T02:55:15;15.60;99.90
19952;DHT22;10137;49.406;19.484;2023-06-10T02:57:45;15.60;99.90
19952;DHT22;10137;49.406;19.484;2023-06-10T03:00:15;15.60;99.90
19952;DHT22;10137;49.406;19.484;2023-06-10T03:02:48;15.70;99.90
19952;DHT22;10137;49.406;19.484;2023-06-10T03:05:19;15.60;99.90
19952;DHT22;10137;49.406;19.484;2023-06-10T03:07:47;15.70;99.90
19952;DHT22;10137;49.406;19.484;2023-06-10T03:10:18;15.70;99.90
19952;DHT22;10137;49.406;19.484;2023-06-10T03:12:46;15.70;99.90
19952;DHT22;10137;49.406;19.484;2023-06-10T03:15:15;15.80;99.90
19952;DHT22;10137;49.406;19.484;2023-06-10T03:17:47;15.80;99.90
19952;DHT22;10137;49.406;19.484;2023-06-10T03:20:17;15.80;99.90
19952;DHT22;10137;49.406;19.484;2023-06-10T03:22:46;15.80;99.90
19952;DHT22;10137;49.406;19.484;2023-06-10T03:25:16;15.80;99.90
19952;DHT22;10137;49.406;19.484;2023-06-10T03:30:29;15.70;99.90
19952;DHT22;10137;49.406;19.484;2023-06-10T03:32:58;15.80;99.90
19952;DHT22;10137;49.406;19.484;2023-06-10T03:35:26;15.70;99.90
19952;DHT22;10137;49.406;19.484;2023-06-10T03:37:55;15.70;99.90
19952;DHT22;10137;49.406;19.484;2023-06-10T03:40:23;15.70;99.90
19952;DHT22;10137;49.406;19.484;2023-06-10T03:42:54;15.60;99.90
19952;DHT22;10137;49.406;19.484;2023-06-10T03:45:25;15.60;99.90
19952;DHT22;10137;49.406;19.484;2023-06-10T03:47:54;15.60;99.90
19952;DHT22;10137;49.406;19.484;2023-06-10T03:50:22;15.60;99.90
19952;DHT22;10137;49.406;19.484;2023-06-10T03:52:51;15.50;99.90
19952;DHT22;10137;49.406;19.484;2023-06-10T03:55:20;15.50;99.90
19952;DHT22;10137;49.406;19.484;2023-06-10T03:57:50;15.50;99.90
19952;DHT22;10137;49.406;19.484;2023-06-10T04:00:23;15.50;99.90
19952;DHT22;10137;49.406;19.484;2023-06-10T04:02:55;15.50;99.90
19952;DHT22;10137;49.406;19.484;2023-06-10T04:05:25;15.60;99.90
19952;DHT22;10137;49.406;19.484;2023-06-10T04:07:54;15.60;99.90
19952;DHT22;10137;49.406;19.484;2023-06-10T04:10:51;15.60;99.90
19952;DHT22;10137;49.406;19.484;2023-06-10T04:13:19;15.70;99.90
19952;DHT22;10137;49.406;19.484;2023-06-10T04:15:49;15.70;99.90
19952;DHT22;10137;49.406;19.484;2023-06-10T04:18:20;15.70;99.90
19952;DHT22;10137;49.406;19.484;2023-06-10T04:20:51;15.80;99.90
19952;DHT22;10137;49.406;19.484;2023-06-10T04:23:19;15.80;99.90
19952;DHT22;10137;49.406;19.484;2023-06-10T04:25:51;15.80;99.90
19952;DHT22;10137;49.406;19.484;2023-06-10T04:28:21;15.90;99.90
19952;DHT22;10137;49.406;19.484;2023-06-10T04:30:51;15.80;99.90
19952;DHT22;10137;49.406;19.484;2023-06-10T04:33:21;15.90;99.90
19952;DHT22;10137;49.406;19.484;2023-06-10T04:35:50;15.80;99.90
19952;DHT22;10137;49.406;19.484;2023-06-10T04:38:17;15.90;99.90
19952;DHT22;10137;49.406;19.484;2023-06-10T04:40:45;15.90;99.90
19952;DHT22;10137;49.406;19.484;2023-06-10T04:43:18;15.90;99.90
19952;DHT22;10137;49.406;19.484;2023-06-10T04:45:46;15.90;99.90
19952;DHT22;10137;49.406;19.484;2023-06-10T04:48:21;16.00;99.90
19952;DHT22;10137;49.406;19.484;2023-06-10T04:50:53;16.00;99.90
19952;DHT22;10137;49.406;19.484;2023-06-10T04:53:24;16.00;99.90
19952;DHT22;10137;49.406;19.484;2023-06-10T04:55:53;16.10;99.90
19952;DHT22;10137;49.406;19.484;2023-06-10T04:58:22;16.10;99.90
19952;DHT22;10137;49.406;19.484;2023-06-10T05:00:50;16.10;99.90
19952;DHT22;10137;49.406;19.484;2023-06-10T05:03:23;16.10;99.90
19952;DHT22;10137;49.406;19.484;2023-06-10T05:05:54;16.10;99.90
19952;DHT22;10137;49.406;19.484;2023-06-10T05:08:24;16.10;99.90
19952;DHT22;10137;49.406;19.484;2023-06-10T05:10:56;16.10;99.90
19952;DHT22;10137;49.406;19.484;2023-06-10T05:13:25;16.20;99.90
19952;DHT22;10137;49.406;19.484;2023-06-10T05:15:57;16.20;99.90
19952;DHT22;10137;49.406;19.484;2023-06-10T05:18:30;16.20;99.90
19952;DHT22;10137;49.406;19.484;2023-06-10T05:20:59;16.30;99.90
19952;DHT22;10137;49.406;19.484;2023-06-10T05:23:27;16.30;99.90
19952;DHT22;10137;49.406;19.484;2023-06-10T05:25:58;16.30;99.90
19952;DHT22;10137;49.406;19.484;2023-06-10T05:28:26;16.30;99.90
19952;DHT22;10137;49.406;19.484;2023-06-10T05:30:54;16.30;99.90
19952;DHT22;10137;49.406;19.484;2023-06-10T05:33:25;16.40;99.90
19952;DHT22;10137;49.406;19.484;2023-06-10T05:36:01;16.50;99.90
19952;DHT22;10137;49.406;19.484;2023-06-10T05:38:29;16.50;99.90
19952;DHT22;10137;49.406;19.484;2023-06-10T05:41:00;16.60;99.90
19952;DHT22;10137;49.406;19.484;2023-06-10T05:43:28;16.60;99.90
19952;DHT22;10137;49.406;19.484;2023-06-10T05:45:57;16.60;99.90
19952;DHT22;10137;49.406;19.484;2023-06-10T05:48:26;16.70;99.90
19952;DHT22;10137;49.406;19.484;2023-06-10T05:50:59;16.60;99.90
19952;DHT22;10137;49.406;19.484;2023-06-10T05:53:27;16.70;99.90
19952;DHT22;10137;49.406;19.484;2023-06-10T05:55:56;16.70;99.90
19952;DHT22;10137;49.406;19.484;2023-06-10T05:58:25;16.70;99.90
19952;DHT22;10137;49.406;19.484;2023-06-10T06:00:54;16.60;99.90
19952;DHT22;10137;49.406;19.484;2023-06-10T06:03:23;16.60;99.90
19952;DHT22;10137;49.406;19.484;2023-06-10T06:05:51;16.60;99.90
19952;DHT22;10137;49.406;19.484;2023-06-10T06:08:20;16.60;99.90
19952;DHT22;10137;49.406;19.484;2023-06-10T06:10:52;16.70;99.90
19952;DHT22;10137;49.406;19.484;2023-06-10T06:13:20;16.70;99.90
19952;DHT22;10137;49.406;19.484;2023-06-10T06:15:49;16.70;99.90
19952;DHT22;10137;49.406;19.484;2023-06-10T06:18:17;16.80;99.90
19952;DHT22;10137;49.406;19.484;2023-06-10T06:20:46;16.80;99.90
19952;DHT22;10137;49.406;19.484;2023-06-10T06:23:14;16.90;99.90
19952;DHT22;10137;49.406;19.484;2023-06-10T06:25:45;16.90;99.90
19952;DHT22;10137;49.406;19.484;2023-06-10T06:28:16;16.80;99.90
19952;DHT22;10137;49.406;19.484;2023-06-10T06:30:47;16.90;99.90
19952;DHT22;10137;49.406;19.484;2023-06-10T06:33:15;16.90;99.90
19952;DHT22;10137;49.406;19.484;2023-06-10T06:35:44;16.90;99.90
19952;DHT22;10137;49.406;19.484;2023-06-10T06:38:12;17.00;99.90
19952;DHT22;10137;49.406;19.484;2023-06-10T06:40:41;17.00;99.90
19952;DHT22;10137;49.406;19.484;2023-06-10T06:43:10;17.00;99.90
19952;DHT22;10137;49.406;19.484;2023-06-10T06:45:38;17.00;99.90
19952;DHT22;10137;49.406;19.484;2023-06-10T06:48:09;17.00;99.90
19952;DHT22;10137;49.406;19.484;2023-06-10T06:50:38;17.00;99.90
19952;DHT22;10137;49.406;19.484;2023-06-10T06:53:08;16.90;99.90
19952;DHT22;10137;49.406;19.484;2023-06-10T06:55:41;16.90;99.90
19952;DHT22;10137;49.406;19.484;2023-06-10T06:58:14;17.00;99.90
19952;DHT22;10137;49.406;19.484;2023-06-10T07:00:42;17.00;99.90
19952;DHT22;10137;49.406;19.484;2023-06-10T07:03:10;17.00;99.90
19952;DHT22;10137;49.406;19.484;2023-06-10T07:05:48;17.00;99.90
19952;DHT22;10137;49.406;19.484;2023-06-10T07:08:18;17.10;99.90
19952;DHT22;10137;49.406;19.484;2023-06-10T07:10:49;17.10;99.90
19952;DHT22;10137;49.406;19.484;2023-06-10T07:13:18;17.10;99.90
19952;DHT22;10137;49.406;19.484;2023-06-10T07:15:48;17.20;99.90
19952;DHT22;10137;49.406;19.484;2023-06-10T07:18:17;17.30;99.90
19952;DHT22;10137;49.406;19.484;2023-06-10T07:20:47;17.30;99.90
19952;DHT22;10137;49.406;19.484;2023-06-10T07:23:15;17.40;99.90
19952;DHT22;10137;49.406;19.484;2023-06-10T07:25:47;17.40;99.90
19952;DHT22;10137;49.406;19.484;2023-06-10T07:28:29;17.50;99.90
19952;DHT22;10137;49.406;19.484;2023-06-10T07:31:00;17.50;99.90
19952;DHT22;10137;49.406;19.484;2023-06-10T07:33:28;17.50;99.90
19952;DHT22;10137;49.406;19.484;2023-06-10T07:36:02;17.60;99.90
19952;DHT22;10137;49.406;19.484;2023-06-10T07:38:30;17.70;99.90
19952;DHT22;10137;49.406;19.484;2023-06-10T07:40:58;17.70;99.90
19952;DHT22;10137;49.406;19.484;2023-06-10T07:43:29;17.80;99.90
19952;DHT22;10137;49.406;19.484;2023-06-10T07:46:10;17.80;99.90
19952;DHT22;10137;49.406;19.484;2023-06-10T07:48:38;17.90;99.90
19952;DHT22;10137;49.406;19.484;2023-06-10T07:51:15;17.90;99.90
19952;DHT22;10137;49.406;19.484;2023-06-10T07:53:43;18.00;99.90
19952;DHT22;10137;49.406;19.484;2023-06-10T07:56:11;18.00;99.90
19952;DHT22;10137;49.406;19.484;2023-06-10T07:58:45;18.00;99.90
19952;DHT22;10137;49.406;19.484;2023-06-10T08:01:12;18.10;99.90
19952;DHT22;10137;49.406;19.484;2023-06-10T08:03:42;18.00;99.90
19952;DHT22;10137;49.406;19.484;2023-06-10T08:06:12;18.10;99.90
19952;DHT22;10137;49.406;19.484;2023-06-10T08:08:40;18.10;99.90
19952;DHT22;10137;49.406;19.484;2023-06-10T08:11:11;18.10;99.90
19952;DHT22;10137;49.406;19.484;2023-06-10T08:13:47;18.10;99.90
19952;DHT22;10137;49.406;19.484;2023-06-10T08:16:19;18.00;99.90
19952;DHT22;10137;49.406;19.484;2023-06-10T08:18:47;18.00;99.90
19952;DHT22;10137;49.406;19.484;2023-06-10T08:21:19;18.10;99.90
19952;DHT22;10137;49.406;19.484;2023-06-10T08:23:52;18.20;99.90
19952;DHT22;10137;49.406;19.484;2023-06-10T08:26:23;18.30;99.90
19952;DHT22;10137;49.406;19.484;2023-06-10T08:28:54;18.30;99.90
19952;DHT22;10137;49.406;19.484;2023-06-10T08:31:22;18.30;99.90
19952;DHT22;10137;49.406;19.484;2023-06-10T08:33:53;18.40;99.90
19952;DHT22;10137;49.406;19.484;2023-06-10T08:36:21;18.40;99.90
19952;DHT22;10137;49.406;19.484;2023-06-10T08:38:50;18.30;99.90
19952;DHT22;10137;49.406;19.484;2023-06-10T08:41:18;18.40;99.90
19952;DHT22;10137;49.406;19.484;2023-06-10T08:43:57;18.40;99.90
19952;DHT22;10137;49.406;19.484;2023-06-10T08:46:29;18.50;99.90
19952;DHT22;10137;49.406;19.484;2023-06-10T08:49:02;18.60;99.90
19952;DHT22;10137;49.406;19.484;2023-06-10T08:51:31;18.60;99.90
19952;DHT22;10137;49.406;19.484;2023-06-10T08:54:02;18.70;99.90
19952;DHT22;10137;49.406;19.484;2023-06-10T08:56:39;18.80;99.90
19952;DHT22;10137;49.406;19.484;2023-06-10T08:59:13;18.80;99.90
19952;DHT22;10137;49.406;19.484;2023-06-10T09:01:46;18.80;99.90
19952;DHT22;10137;49.406;19.484;2023-06-10T09:04:19;19.00;99.90
19952;DHT22;10137;49.406;19.484;2023-06-10T09:06:50;18.90;99.90
19952;DHT22;10137;49.406;19.484;2023-06-10T09:09:20;19.00;99.90
19952;DHT22;10137;49.406;19.484;2023-06-10T09:11:58;19.10;99.90
19952;DHT22;10137;49.406;19.484;2023-06-10T09:14:28;19.20;99.90
19952;DHT22;10137;49.406;19.484;2023-06-10T09:16:56;19.20;99.90
19952;DHT22;10137;49.406;19.484;2023-06-10T09:19:30;19.10;99.90
19952;DHT22;10137;49.406;19.484;2023-06-10T09:21:58;19.00;99.90
19952;DHT22;10137;49.406;19.484;2023-06-10T09:24:29;19.00;99.90
19952;DHT22;10137;49.406;19.484;2023-06-10T09:27:04;18.90;99.90
19952;DHT22;10137;49.406;19.484;2023-06-10T09:29:45;18.90;99.90
19952;DHT22;10137;49.406;19.484;2023-06-10T09:32:13;18.80;99.90
19952;DHT22;10137;49.406;19.484;2023-06-10T09:34:42;18.80;99.90
19952;DHT22;10137;49.406;19.484;2023-06-10T09:37:11;18.60;99.90
19952;DHT22;10137;49.406;19.484;2023-06-10T09:39:43;18.60;99.90
19952;DHT22;10137;49.406;19.484;2023-06-10T09:42:16;18.50;99.90
19952;DHT22;10137;49.406;19.484;2023-06-10T09:44:53;18.50;99.90
19952;DHT22;10137;49.406;19.484;2023-06-10T09:47:21;18.50;99.90
19952;DHT22;10137;49.406;19.484;2023-06-10T09:49:53;18.50;99.90
19952;DHT22;10137;49.406;19.484;2023-06-10T09:52:24;18.40;99.90
19952;DHT22;10137;49.406;19.484;2023-06-10T09:54:54;18.30;99.90
19952;DHT22;10137;49.406;19.484;2023-06-10T09:57:31;18.30;99.90
19952;DHT22;10137;49.406;19.484;2023-06-10T10:00:04;18.20;99.90
19952;DHT22;10137;49.406;19.484;2023-06-10T10:02:33;18.20;99.90
19952;DHT22;10137;49.406;19.484;2023-06-10T10:05:13;18.10;99.90
19952;DHT22;10137;49.406;19.484;2023-06-10T10:07:44;18.10;99.90
19952;DHT22;10137;49.406;19.484;2023-06-10T10:10:14;18.00;99.90
19952;DHT22;10137;49.406;19.484;2023-06-10T10:12:43;18.00;99.90
19952;DHT22;10137;49.406;19.484;2023-06-10T10:15:19;17.90;99.90
19952;DHT22;10137;49.406;19.484;2023-06-10T10:17:54;17.90;99.90
19952;DHT22;10137;49.406;19.484;2023-06-10T10:20:27;17.80;99.90
19952;DHT22;10137;49.406;19.484;2023-06-10T10:22:59;17.80;99.90
19952;DHT22;10137;49.406;19.484;2023-06-10T10:25:35;17.90;99.90
19952;DHT22;10137;49.406;19.484;2023-06-10T10:28:08;17.90;99.90
19952;DHT22;10137;49.406;19.484;2023-06-10T10:30:40;17.90;99.90
19952;DHT22;10137;49.406;19.484;2023-06-10T10:33:13;17.90;99.90
19952;DHT22;10137;49.406;19.484;2023-06-10T10:35:43;17.80;99.90
19952;DHT22;10137;49.406;19.484;2023-06-10T10:38:12;17.80;99.90
19952;DHT22;10137;49.406;19.484;2023-06-10T10:40:41;17.80;99.90
19952;DHT22;10137;49.406;19.484;2023-06-10T10:43:19;17.80;99.90
19952;DHT22;10137;49.406;19.484;2023-06-10T10:45:59;17.80;99.90
19952;DHT22;10137;49.406;19.484;2023-06-10T10:48:33;17.80;99.90
19952;DHT22;10137;49.406;19.484;2023-06-10T10:51:02;17.80;99.90
19952;DHT22;10137;49.406;19.484;2023-06-10T10:53:31;17.80;99.90
19952;DHT22;10137;49.406;19.484;2023-06-10T10:56:04;17.80;99.90
19952;DHT22;10137;49.406;19.484;2023-06-10T10:58:32;17.80;99.90
19952;DHT22;10137;49.406;19.484;2023-06-10T11:01:11;17.80;99.90
19952;DHT22;10137;49.406;19.484;2023-06-10T11:03:43;17.90;99.90
19952;DHT22;10137;49.406;19.484;2023-06-10T11:06:14;17.80;99.90
19952;DHT22;10137;49.406;19.484;2023-06-10T11:08:47;17.90;99.90
19952;DHT22;10137;49.406;19.484;2023-06-10T11:11:21;17.80;99.90
19952;DHT22;10137;49.406;19.484;2023-06-10T11:14:07;17.90;99.90
19952;DHT22;10137;49.406;19.484;2023-06-10T11:16:42;17.90;99.90
19952;DHT22;10137;49.406;19.484;2023-06-10T11:19:33;17.90;99.90
19952;DHT22;10137;49.406;19.484;2023-06-10T11:22:03;17.80;99.90
19952;DHT22;10137;49.406;19.484;2023-06-10T11:24:35;17.80;99.90
19952;DHT22;10137;49.406;19.484;2023-06-10T11:27:21;17.80;99.90
19952;DHT22;10137;49.406;19.484;2023-06-10T11:29:58;17.90;99.90
19952;DHT22;10137;49.406;19.484;2023-06-10T11:32:30;17.80;99.90
19952;DHT22;10137;49.406;19.484;2023-06-10T11:34:59;17.80;99.90
19952;DHT22;10137;49.406;19.484;2023-06-10T11:37:27;17.80;99.90
19952;DHT22;10137;49.406;19.484;2023-06-10T11:39:56;17.90;99.90
19952;DHT22;10137;49.406;19.484;2023-06-10T11:42:28;17.80;99.90
19952;DHT22;10137;49.406;19.484;2023-06-10T11:44:56;17.80;99.90
19952;DHT22;10137;49.406;19.484;2023-06-10T11:47:24;17.80;99.90
19952;DHT22;10137;49.406;19.484;2023-06-10T11:49:57;17.80;99.90
19952;DHT22;10137;49.406;19.484;2023-06-10T11:52:29;17.90;99.90
19952;DHT22;10137;49.406;19.484;2023-06-10T11:54:59;17.90;99.90
19952;DHT22;10137;49.406;19.484;2023-06-10T11:57:27;17.90;99.90
19952;DHT22;10137;49.406;19.484;2023-06-10T11:59:55;17.80;99.90
19952;DHT22;10137;49.406;19.484;2023-06-10T12:02:23;17.90;99.90
19952;DHT22;10137;49.406;19.484;2023-06-10T12:04:51;17.80;99.90
19952;DHT22;10137;49.406;19.484;2023-06-10T12:07:22;17.80;99.90
19952;DHT22;10137;49.406;19.484;2023-06-10T12:09:58;17.80;99.90
19952;DHT22;10137;49.406;19.484;2023-06-10T12:12:28;17.70;99.90
19952;DHT22;10137;49.406;19.484;2023-06-10T12:15:03;17.80;99.90
19952;DHT22;10137;49.406;19.484;2023-06-10T12:17:38;17.80;99.90
19952;DHT22;10137;49.406;19.484;2023-06-10T12:20:07;17.90;99.90
19952;DHT22;10137;49.406;19.484;2023-06-10T12:22:44;17.90;99.90
19952;DHT22;10137;49.406;19.484;2023-06-10T12:25:12;17.90;99.90
19952;DHT22;10137;49.406;19.484;2023-06-10T12:27:50;17.90;99.90
19952;DHT22;10137;49.406;19.484;2023-06-10T12:30:23;17.90;99.90
19952;DHT22;10137;49.406;19.484;2023-06-10T12:32:51;17.80;99.90
19952;DHT22;10137;49.406;19.484;2023-06-10T12:35:22;17.70;99.90
19952;DHT22;10137;49.406;19.484;2023-06-10T12:38:00;17.60;99.90
19952;DHT22;10137;49.406;19.484;2023-06-10T12:40:34;17.60;99.90
19952;DHT22;10137;49.406;19.484;2023-06-10T12:43:07;17.50;99.90
19952;DHT22;10137;49.406;19.484;2023-06-10T12:45:39;17.60;99.90
19952;DHT22;10137;49.406;19.484;2023-06-10T12:48:10;17.60;99.90
19952;DHT22;10137;49.406;19.484;2023-06-10T12:50:41;17.60;99.90
19952;DHT22;10137;49.406;19.484;2023-06-10T12:53:12;17.60;99.90
19952;DHT22;10137;49.406;19.484;2023-06-10T12:55:43;17.50;99.90
19952;DHT22;10137;49.406;19.484;2023-06-10T12:58:14;17.60;99.90
19952;DHT22;10137;49.406;19.484;2023-06-10T13:00:42;17.60;99.90
19952;DHT22;10137;49.406;19.484;2023-06-10T13:03:12;17.60;99.90
19952;DHT22;10137;49.406;19.484;2023-06-10T13:05:40;17.60;99.90
19952;DHT22;10137;49.406;19.484;2023-06-10T13:08:17;17.60;99.90
19952;DHT22;10137;49.406;19.484;2023-06-10T13:10:50;17.50;99.90
19952;DHT22;10137;49.406;19.484;2023-06-10T13:13:19;17.50;99.90
19952;DHT22;10137;49.406;19.484;2023-06-10T13:15:51;17.50;99.90
19952;DHT22;10137;49.406;19.484;2023-06-10T13:18:21;17.50;99.90
19952;DHT22;10137;49.406;19.484;2023-06-10T13:20:49;17.40;99.90
19952;DHT22;10137;49.406;19.484;2023-06-10T13:23:19;17.50;99.90
19952;DHT22;10137;49.406;19.484;2023-06-10T13:25:49;17.40;99.90
19952;DHT22;10137;49.406;19.484;2023-06-10T13:28:19;17.40;99.90
19952;DHT22;10137;49.406;19.484;2023-06-10T13:30:48;17.30;99.90
19952;DHT22;10137;49.406;19.484;2023-06-10T13:33:16;17.30;99.90
19952;DHT22;10137;49.406;19.484;2023-06-10T13:35:48;17.20;99.90
19952;DHT22;10137;49.406;19.484;2023-06-10T13:38:17;17.10;99.90
19952;DHT22;10137;49.406;19.484;2023-06-10T13:40:46;17.20;99.90
19952;DHT22;10137;49.406;19.484;2023-06-10T13:43:16;17.10;99.90
19952;DHT22;10137;49.406;19.484;2023-06-10T13:45:44;17.10;99.90
19952;DHT22;10137;49.406;19.484;2023-06-10T13:48:14;17.00;99.90
19952;DHT22;10137;49.406;19.484;2023-06-10T13:50:46;17.00;99.90
19952;DHT22;10137;49.406;19.484;2023-06-10T13:53:14;17.00;99.90
19952;DHT22;10137;49.406;19.484;2023-06-10T13:55:46;17.00;99.90
19952;DHT22;10137;49.406;19.484;2023-06-10T13:58:14;16.90;99.90
19952;DHT22;10137;49.406;19.484;2023-06-10T14:00:45;16.90;99.90
19952;DHT22;10137;49.406;19.484;2023-06-10T14:03:14;16.90;99.90
19952;DHT22;10137;49.406;19.484;2023-06-10T14:05:44;16.90;99.90
19952;DHT22;10137;49.406;19.484;2023-06-10T14:08:12;16.90;99.90
19952;DHT22;10137;49.406;19.484;2023-06-10T14:10:41;16.90;99.90
19952;DHT22;10137;49.406;19.484;2023-06-10T14:13:10;17.00;99.90
19952;DHT22;10137;49.406;19.484;2023-06-10T14:15:38;16.90;99.90
19952;DHT22;10137;49.406;19.484;2023-06-10T14:18:07;16.90;99.90
19952;DHT22;10137;49.406;19.484;2023-06-10T14:20:35;17.00;99.90
19952;DHT22;10137;49.406;19.484;2023-06-10T14:23:07;17.00;99.90
19952;DHT22;10137;49.406;19.484;2023-06-10T14:25:35;16.90;99.90
19952;DHT22;10137;49.406;19.484;2023-06-10T14:28:03;17.00;99.90
19952;DHT22;10137;49.406;19.484;2023-06-10T14:30:34;17.00;99.90
19952;DHT22;10137;49.406;19.484;2023-06-10T14:33:02;17.00;99.90
19952;DHT22;10137;49.406;19.484;2023-06-10T14:35:36;17.00;99.90
19952;DHT22;10137;49.406;19.484;2023-06-10T14:38:04;17.00;99.90
19952;DHT22;10137;49.406;19.484;2023-06-10T14:40:35;17.00;99.90
19952;DHT22;10137;49.406;19.484;2023-06-10T14:43:06;17.00;99.90
19952;DHT22;10137;49.406;19.484;2023-06-10T14:45:38;17.00;99.90
19952;DHT22;10137;49.406;19.484;2023-06-10T14:48:06;17.10;99.90
19952;DHT22;10137;49.406;19.484;2023-06-10T14:50:35;17.00;99.90
19952;DHT22;10137;49.406;19.484;2023-06-10T14:53:04;17.00;99.90
19952;DHT22;10137;49.406;19.484;2023-06-10T14:55:32;17.00;99.90
19952;DHT22;10137;49.406;19.484;2023-06-10T14:58:00;17.00;99.90
19952;DHT22;10137;49.406;19.484;2023-06-10T15:00:28;17.00;99.90
19952;DHT22;10137;49.406;19.484;2023-06-10T15:03:00;17.00;99.90
19952;DHT22;10137;49.406;19.484;2023-06-10T15:05:29;17.00;99.90
19952;DHT22;10137;49.406;19.484;2023-06-10T15:07:57;16.90;99.90
19952;DHT22;10137;49.406;19.484;2023-06-10T15:10:25;16.90;99.90
19952;DHT22;10137;49.406;19.484;2023-06-10T15:12:54;17.00;99.90
19952;DHT22;10137;49.406;19.484;2023-06-10T15:15:24;17.00;99.90
19952;DHT22;10137;49.406;19.484;2023-06-10T15:17:52;17.00;99.90
19952;DHT22;10137;49.406;19.484;2023-06-10T15:20:21;17.00;99.90
19952;DHT22;10137;49.406;19.484;2023-06-10T15:22:50;17.00;99.90
19952;DHT22;10137;49.406;19.484;2023-06-10T15:25:18;17.00;99.90
19952;DHT22;10137;49.406;19.484;2023-06-10T15:27:47;17.00;99.90
19952;DHT22;10137;49.406;19.484;2023-06-10T15:30:15;16.90;99.90
19952;DHT22;10137;49.406;19.484;2023-06-10T15:32:43;16.90;99.90
19952;DHT22;10137;49.406;19.484;2023-06-10T15:35:11;16.90;99.90
19952;DHT22;10137;49.406;19.484;2023-06-10T15:37:41;16.90;99.90
19952;DHT22;10137;49.406;19.484;2023-06-10T15:40:09;16.90;99.90